createdAt,value
2018-06-15T00:00:18.769Z,1.30
2018-06-15T00:02:52.470Z,1.07
2018-06-15T00:05:21.075Z,1.20
2018-06-15T00:07:49.432Z,1.20
2018-06-15T00:10:18.013Z,1.27
2018-06-15T00:12:46.494Z,1.03
2018-06-15T00:15:15.085Z,1.13
2018-06-15T00:17:43.658Z,1.10
2018-06-15T00:20:12.247Z,1.27
2018-06-15T00:22:40.778Z,1.20
2018-06-15T00:25:09.537Z,1.20
2018-06-15T00:27:38.303Z,0.90
2018-06-15T00:30:07.083Z,1.20
2018-06-15T00:32:35.605Z,1.00
2018-06-15T00:35:04.148Z,1.10
2018-06-15T00:37:32.803Z,1.20
2018-06-15T00:40:01.354Z,0.90
2018-06-15T00:42:30.001Z,1.00
2018-06-15T00:44:58.583Z,0.97
2018-06-15T00:47:27.046Z,1.30
2018-06-15T00:49:55.616Z,0.90
2018-06-15T00:52:24.235Z,0.97
2018-06-15T00:54:52.813Z,0.90
2018-06-15T00:57:26.560Z,0.97
2018-06-15T00:59:55.101Z,1.10
2018-06-15T01:02:23.608Z,0.80
2018-06-15T01:04:52.036Z,1.20
2018-06-15T01:07:20.468Z,0.83
2018-06-15T01:09:49.022Z,1.00
2018-06-15T01:12:17.501Z,1.00
2018-06-15T01:14:46.085Z,1.10
2018-06-15T01:17:14.667Z,1.20
2018-06-15T01:19:43.269Z,1.23
2018-06-15T01:22:11.958Z,1.20
2018-06-15T01:24:40.516Z,1.17
2018-06-15T01:27:09.103Z,1.00
2018-06-15T01:29:37.887Z,1.30
2018-06-15T01:32:06.373Z,1.30
2018-06-15T01:34:34.954Z,1.10
2018-06-15T01:37:03.689Z,1.10
2018-06-15T01:39:32.219Z,1.00
2018-06-15T01:42:00.764Z,1.20
2018-06-15T01:44:29.384Z,1.13
2018-06-15T01:46:57.901Z,1.43
2018-06-15T01:49:26.379Z,1.40
2018-06-15T01:51:54.954Z,1.60
2018-06-15T01:54:23.514Z,1.40
2018-06-15T01:56:52.097Z,1.63
2018-06-15T01:59:20.581Z,1.63
2018-06-15T02:01:49.003Z,1.80
2018-06-15T02:04:17.664Z,2.03
2018-06-15T02:06:46.225Z,1.60
2018-06-15T02:09:14.909Z,1.70
2018-06-15T02:11:43.493Z,2.07
2018-06-15T02:14:12.208Z,2.07
2018-06-15T02:16:40.691Z,1.60
2018-06-15T02:19:09.239Z,2.03
2018-06-15T02:21:37.745Z,1.60
2018-06-15T02:24:06.305Z,1.37
2018-06-15T02:26:34.959Z,1.50
2018-06-15T02:29:03.600Z,1.90
2018-06-15T02:31:32.110Z,1.53
2018-06-15T02:34:00.712Z,1.50
2018-06-15T02:36:29.322Z,1.20
2018-06-15T02:38:57.787Z,1.50
2018-06-15T02:41:26.487Z,1.40
2018-06-15T02:43:55.024Z,1.37
2018-06-15T02:46:23.560Z,1.17
2018-06-15T02:48:52.136Z,1.63
2018-06-15T02:51:20.676Z,1.40
2018-06-15T02:53:49.197Z,1.77
2018-06-15T02:56:17.842Z,1.47
2018-06-15T02:58:46.673Z,1.53
2018-06-15T03:01:15.361Z,1.40
2018-06-15T03:03:43.900Z,1.40
2018-06-15T03:06:12.532Z,1.50
2018-06-15T03:08:41.166Z,1.30
2018-06-15T03:11:09.770Z,1.40
2018-06-15T03:13:38.435Z,1.60
2018-06-15T03:16:07.068Z,1.50
2018-06-15T03:18:35.963Z,1.60
2018-06-15T03:21:04.531Z,1.70
2018-06-15T03:23:33.154Z,1.73
2018-06-15T03:26:01.742Z,1.73
2018-06-15T03:28:30.374Z,1.67
2018-06-15T03:30:59.176Z,1.47
2018-06-15T03:33:27.856Z,1.60
2018-06-15T03:35:56.546Z,1.53
2018-06-15T03:38:25.148Z,1.57
2018-06-15T03:40:53.719Z,1.40
2018-06-15T03:43:22.198Z,1.53
2018-06-15T03:45:50.964Z,1.83
2018-06-15T03:48:19.505Z,1.70
2018-06-15T03:50:48.057Z,3.00
2018-06-15T03:53:16.672Z,6.57
2018-06-15T03:55:45.214Z,4.60
2018-06-15T03:58:13.890Z,2.43
2018-06-15T04:00:42.368Z,2.27
2018-06-15T04:03:10.970Z,2.70
2018-06-15T04:05:39.540Z,2.57
2018-06-15T04:08:08.127Z,2.40
2018-06-15T04:10:36.857Z,1.80
2018-06-15T04:13:05.531Z,4.37
2018-06-15T04:15:34.483Z,6.07
2018-06-15T04:18:05.735Z,4.20
2018-06-15T04:20:35.072Z,4.10
2018-06-15T04:23:03.831Z,6.20
2018-06-15T04:25:32.811Z,5.50
2018-06-15T04:28:01.410Z,2.83
2018-06-15T04:30:30.001Z,3.50
2018-06-15T04:32:58.657Z,3.50
2018-06-15T04:35:28.809Z,4.80
2018-06-15T04:37:57.475Z,6.93
2018-06-15T04:40:26.357Z,3.37
2018-06-15T04:42:55.053Z,3.63
2018-06-15T04:45:23.628Z,4.40
2018-06-15T04:47:52.418Z,2.43
2018-06-15T04:50:20.900Z,7.00
2018-06-15T04:52:49.258Z,2.70
2018-06-15T04:55:17.792Z,5.97
2018-06-15T04:57:46.543Z,3.70
2018-06-15T05:00:15.333Z,2.50
2018-06-15T05:02:43.908Z,1.73
2018-06-15T05:05:12.601Z,2.13
2018-06-15T05:07:41.110Z,2.40
2018-06-15T05:10:09.760Z,1.97
2018-06-15T05:12:38.344Z,1.80
2018-06-15T05:15:07.042Z,1.80
2018-06-15T05:17:35.616Z,2.43
2018-06-15T05:20:04.627Z,2.10
2018-06-15T05:22:33.184Z,2.30
2018-06-15T05:25:01.974Z,2.27
2018-06-15T05:27:30.459Z,2.73
2018-06-15T05:29:59.044Z,4.77
2018-06-15T05:32:27.823Z,3.50
2018-06-15T05:34:56.627Z,4.40
2018-06-15T05:37:25.449Z,3.80
2018-06-15T05:39:54.082Z,3.63
2018-06-15T05:42:22.665Z,3.00
2018-06-15T05:45:28.153Z,1.90
2018-06-15T05:47:56.573Z,3.30
2018-06-15T05:50:25.009Z,3.80
2018-06-15T05:52:53.660Z,7.57
2018-06-15T05:55:28.797Z,10.77
2018-06-15T05:57:57.482Z,8.53
2018-06-15T06:00:26.063Z,9.27
2018-06-15T06:02:54.650Z,4.80
2018-06-15T06:05:23.229Z,3.93
2018-06-15T06:07:52.094Z,5.57
2018-06-15T06:10:20.803Z,8.00
2018-06-15T06:12:49.394Z,6.27
2018-06-15T06:15:17.764Z,4.20
2018-06-15T06:17:46.351Z,3.23
2018-06-15T06:20:14.954Z,2.20
2018-06-15T06:22:43.414Z,1.70
2018-06-15T06:25:12.011Z,1.80
2018-06-15T06:27:40.404Z,2.07
2018-06-15T06:30:08.955Z,3.60
2018-06-15T06:32:38.126Z,3.73
2018-06-15T06:35:06.636Z,4.07
2018-06-15T06:37:35.215Z,4.07
2018-06-15T06:40:03.608Z,2.97
2018-06-15T06:42:32.058Z,2.60
2018-06-15T06:45:00.561Z,2.73
2018-06-15T06:47:29.141Z,3.37
2018-06-15T06:49:57.522Z,3.20
2018-06-15T06:52:26.103Z,3.53
2018-06-15T06:54:54.685Z,4.80
2018-06-15T06:57:23.087Z,4.57
2018-06-15T06:59:51.647Z,5.13
2018-06-15T07:02:20.325Z,4.47
2018-06-15T07:04:49.017Z,4.80
2018-06-15T07:07:17.599Z,5.90
2018-06-15T07:09:46.139Z,6.10
2018-06-15T07:12:14.667Z,5.73
2018-06-15T07:14:43.079Z,4.87
2018-06-15T07:17:11.484Z,4.40
2018-06-15T07:19:40.002Z,3.53
2018-06-15T07:22:08.583Z,2.90
2018-06-15T07:24:36.983Z,2.70
2018-06-15T07:27:05.547Z,3.30
2018-06-15T07:29:34.131Z,2.83
2018-06-15T07:32:02.715Z,3.10
2018-06-15T07:34:31.198Z,3.07
2018-06-15T07:36:59.671Z,2.67
2018-06-15T07:39:29.121Z,2.63
2018-06-15T07:41:57.489Z,3.20
2018-06-15T07:44:26.038Z,2.30
2018-06-15T07:46:54.722Z,2.30
2018-06-15T07:49:23.184Z,2.87
2018-06-15T07:51:51.785Z,2.70
2018-06-15T07:54:20.365Z,2.80
2018-06-15T07:56:48.795Z,2.67
2018-06-15T07:59:17.226Z,2.97
2018-06-15T08:01:45.908Z,3.40
2018-06-15T08:04:14.395Z,3.97
2018-06-15T08:06:42.870Z,3.97
2018-06-15T08:09:11.455Z,4.27
2018-06-15T08:11:39.941Z,3.27
2018-06-15T08:14:08.490Z,4.07
2018-06-15T08:16:37.105Z,3.10
2018-06-15T08:19:05.789Z,3.10
2018-06-15T08:21:34.371Z,2.93
2018-06-15T08:24:03.056Z,3.20
2018-06-15T08:26:31.553Z,2.93
2018-06-15T08:29:00.229Z,2.87
2018-06-15T08:31:28.804Z,2.73
2018-06-15T08:33:57.400Z,2.90
2018-06-15T08:36:26.070Z,3.27
2018-06-15T08:38:54.656Z,3.00
2018-06-15T08:41:23.237Z,2.73
2018-06-15T08:43:51.823Z,3.43
2018-06-15T08:46:20.407Z,2.77
2018-06-15T08:48:48.920Z,2.53
2018-06-15T08:51:17.469Z,2.53
2018-06-15T08:53:46.052Z,3.03
2018-06-15T08:56:14.678Z,2.77
2018-06-15T08:58:43.217Z,3.53
2018-06-15T09:01:11.801Z,4.57
2018-06-15T09:03:40.208Z,4.23
2018-06-15T09:06:08.764Z,5.13
2018-06-15T09:08:37.343Z,6.00
2018-06-15T09:11:06.029Z,7.03
2018-06-15T09:13:35.036Z,6.83
2018-06-15T09:16:03.606Z,5.73
2018-06-15T09:18:32.291Z,6.03
2018-06-15T09:21:00.771Z,6.30
2018-06-15T09:23:29.354Z,5.23
2018-06-15T09:25:57.952Z,4.97
2018-06-15T09:28:26.520Z,5.23
2018-06-15T09:30:54.980Z,4.20
2018-06-15T09:33:23.685Z,3.87
2018-06-15T09:35:52.268Z,3.87
2018-06-15T09:38:20.790Z,4.13
2018-06-15T09:40:49.433Z,3.70
2018-06-15T09:43:18.119Z,3.87
2018-06-15T09:45:46.546Z,4.40
2018-06-15T09:48:15.283Z,3.73
2018-06-15T09:50:43.872Z,4.03
2018-06-15T09:53:12.550Z,4.23
2018-06-15T09:55:40.973Z,3.80
2018-06-15T09:58:09.734Z,3.07
2018-06-15T10:00:44.148Z,3.60
2018-06-15T10:03:12.633Z,3.30
2018-06-15T10:05:41.057Z,3.60
2018-06-15T10:08:09.682Z,5.00
2018-06-15T10:10:38.059Z,3.10
2018-06-15T10:13:06.766Z,2.80
2018-06-15T10:15:35.330Z,3.80
2018-06-15T10:18:03.909Z,3.40
2018-06-15T10:20:32.499Z,3.30
2018-06-15T10:23:01.001Z,2.77
2018-06-15T10:25:29.500Z,2.77
2018-06-15T10:27:58.249Z,2.90
2018-06-15T10:30:26.766Z,4.80
2018-06-15T10:32:55.334Z,3.03
2018-06-15T10:35:23.806Z,2.53
2018-06-15T10:37:52.372Z,2.13
2018-06-15T10:40:20.816Z,2.17
2018-06-15T10:42:49.434Z,2.70
2018-06-15T10:45:18.018Z,2.77
2018-06-15T10:47:46.418Z,2.70
2018-06-15T10:50:14.980Z,3.20
2018-06-15T10:52:43.562Z,3.07
2018-06-15T10:55:11.850Z,3.00
2018-06-15T10:57:40.317Z,3.10
2018-06-15T11:00:09.004Z,3.10
2018-06-15T11:02:37.588Z,3.30
2018-06-15T11:05:06.212Z,3.80
2018-06-15T11:07:34.752Z,4.47
2018-06-15T11:10:03.348Z,5.13
2018-06-15T11:12:32.533Z,4.57
2018-06-15T11:15:01.013Z,5.90
2018-06-15T11:17:29.699Z,5.30
2018-06-15T11:19:58.385Z,5.77
2018-06-15T11:22:26.971Z,5.70
2018-06-15T11:24:55.661Z,6.57
2018-06-15T11:27:24.334Z,7.00
2018-06-15T11:29:52.713Z,6.43
2018-06-15T11:32:21.296Z,7.67
2018-06-15T11:34:49.888Z,8.20
2018-06-15T11:37:18.364Z,8.00
2018-06-15T11:39:46.813Z,8.13
2018-06-15T11:42:15.325Z,7.17
2018-06-15T11:44:43.925Z,7.27
2018-06-15T11:47:12.493Z,8.43
2018-06-15T11:49:41.077Z,8.37
2018-06-15T11:52:09.558Z,7.07
2018-06-15T11:54:38.141Z,8.30
2018-06-15T11:57:06.621Z,1.97
2018-06-15T11:59:35.015Z,2.83
2018-06-15T12:02:03.578Z,2.30
2018-06-15T12:04:32.161Z,1.77
2018-06-15T12:07:00.746Z,2.30
2018-06-15T12:09:29.327Z,1.90
2018-06-15T12:11:57.897Z,2.60
2018-06-15T12:14:26.496Z,2.80
2018-06-15T12:16:55.073Z,4.67
2018-06-15T12:19:23.558Z,6.70
2018-06-15T12:21:52.257Z,6.00
2018-06-15T12:24:20.731Z,4.83
2018-06-15T12:26:49.307Z,6.33
2018-06-15T12:29:17.887Z,5.67
2018-06-15T12:31:46.469Z,4.70
2018-06-15T12:34:15.226Z,5.87
2018-06-15T12:36:43.544Z,4.97
2018-06-15T12:39:12.115Z,5.97
2018-06-15T12:41:40.700Z,5.03
2018-06-15T12:44:10.309Z,5.40
2018-06-15T12:46:38.887Z,7.27
2018-06-15T12:49:07.574Z,7.80
2018-06-15T12:51:36.365Z,5.60
2018-06-15T12:54:04.950Z,5.97
2018-06-15T12:56:33.435Z,7.73
2018-06-15T12:59:02.013Z,6.60
2018-06-15T13:01:30.695Z,5.70
2018-06-15T13:03:59.072Z,4.40
2018-06-15T13:06:27.684Z,3.30
2018-06-15T13:08:56.138Z,3.30
2018-06-15T13:11:24.623Z,3.77
2018-06-15T13:13:53.205Z,4.20
2018-06-15T13:16:21.791Z,4.40
2018-06-15T13:18:50.367Z,5.20
2018-06-15T13:21:18.748Z,4.50
2018-06-15T13:23:47.348Z,5.40
2018-06-15T13:26:15.792Z,5.33
2018-06-15T13:28:44.307Z,4.70
2018-06-15T13:31:12.870Z,4.63
2018-06-15T13:33:41.351Z,4.20
2018-06-15T13:36:09.933Z,4.40
2018-06-15T13:38:38.619Z,4.97
2018-06-15T13:41:07.104Z,5.67
2018-06-15T13:43:35.786Z,4.20
2018-06-15T13:46:04.269Z,3.83
2018-06-15T13:48:32.901Z,4.63
2018-06-15T13:51:01.431Z,4.20
2018-06-15T13:53:30.116Z,5.03
2018-06-15T13:55:58.595Z,4.80
2018-06-15T13:58:27.076Z,3.80
2018-06-15T14:00:55.678Z,4.20
2018-06-15T14:03:24.145Z,4.27
2018-06-15T14:05:52.833Z,3.90
2018-06-15T14:08:21.406Z,3.57
2018-06-15T14:10:50.096Z,3.87
2018-06-15T14:13:18.703Z,3.73
2018-06-15T14:15:47.259Z,4.43
2018-06-15T14:18:15.846Z,6.17
2018-06-15T14:20:44.428Z,3.60
2018-06-15T14:23:13.138Z,5.17
2018-06-15T14:25:41.599Z,3.30
2018-06-15T14:28:10.073Z,3.40
2018-06-15T14:30:38.653Z,3.30
2018-06-15T14:33:07.251Z,3.87
2018-06-15T14:35:35.685Z,3.40
2018-06-15T14:38:04.302Z,3.37
2018-06-15T14:40:32.912Z,3.33
2018-06-15T14:43:02.491Z,3.23
2018-06-15T14:45:31.008Z,3.20
2018-06-15T14:47:59.503Z,3.23
2018-06-15T14:50:28.241Z,2.73
2018-06-15T14:52:56.979Z,2.57
2018-06-15T14:55:25.637Z,3.27
2018-06-15T14:57:54.195Z,2.63
2018-06-15T15:00:22.633Z,2.83
2018-06-15T15:02:51.152Z,2.93
2018-06-15T15:05:19.739Z,2.47
2018-06-15T15:07:48.207Z,3.10
2018-06-15T15:10:16.803Z,2.80
2018-06-15T15:12:45.388Z,2.90
2018-06-15T15:15:13.787Z,3.20
2018-06-15T15:17:42.344Z,2.90
2018-06-15T15:20:10.938Z,2.90
2018-06-15T15:22:39.414Z,3.33
2018-06-15T15:25:07.893Z,3.70
2018-06-15T15:27:36.473Z,2.93
2018-06-15T15:30:04.899Z,2.50
2018-06-15T15:32:33.429Z,3.13
2018-06-15T15:35:01.930Z,3.03
2018-06-15T15:37:30.605Z,2.30
2018-06-15T15:39:59.400Z,2.37
2018-06-15T15:42:28.070Z,2.33
2018-06-15T15:44:56.688Z,2.60
2018-06-15T15:47:25.338Z,2.70
2018-06-15T15:49:53.926Z,2.07
2018-06-15T15:52:22.609Z,2.20
2018-06-15T15:54:51.059Z,2.30
2018-06-15T15:57:19.452Z,2.57
2018-06-15T15:59:48.057Z,2.50
2018-06-15T16:02:16.558Z,2.10
2018-06-15T16:04:45.112Z,2.37
2018-06-15T16:07:13.883Z,2.20
2018-06-15T16:09:42.486Z,3.07
2018-06-15T16:12:11.000Z,2.90
2018-06-15T16:14:39.549Z,2.10
2018-06-15T16:17:08.042Z,1.73
2018-06-15T16:19:36.882Z,2.20
2018-06-15T16:22:05.502Z,2.17
2018-06-15T16:24:33.979Z,2.33
2018-06-15T16:27:02.773Z,2.60
2018-06-15T16:29:31.271Z,1.67
2018-06-15T16:31:59.747Z,1.70
2018-06-15T16:34:28.317Z,2.00
2018-06-15T16:36:56.796Z,2.43
2018-06-15T16:39:25.375Z,1.83
2018-06-15T16:41:53.960Z,1.63
2018-06-15T16:44:22.404Z,1.97
2018-06-15T16:46:51.026Z,2.00
2018-06-15T16:49:19.477Z,2.10
2018-06-15T16:51:48.084Z,1.87
2018-06-15T16:54:16.564Z,2.07
2018-06-15T16:56:45.154Z,1.90
2018-06-15T16:59:13.564Z,2.27
2018-06-15T17:01:42.023Z,2.20
2018-06-15T17:04:10.593Z,1.60
2018-06-15T17:06:39.177Z,2.10
2018-06-15T17:09:08.701Z,2.03
2018-06-15T17:11:37.134Z,1.97
2018-06-15T17:14:06.048Z,2.23
2018-06-15T17:16:34.803Z,2.10
2018-06-15T17:19:03.419Z,1.97
2018-06-15T17:21:31.918Z,1.90
2018-06-15T17:24:00.312Z,2.00
2018-06-15T17:26:28.966Z,2.13
2018-06-15T17:28:57.671Z,2.00
2018-06-15T17:31:26.067Z,1.70
2018-06-15T17:33:54.611Z,1.90
2018-06-15T17:36:23.098Z,1.80
2018-06-15T17:38:51.777Z,2.30
2018-06-15T17:41:20.462Z,2.03
2018-06-15T17:43:48.951Z,2.17
2018-06-15T17:46:17.582Z,1.70
2018-06-15T17:48:46.112Z,1.60
2018-06-15T17:51:14.502Z,2.03
2018-06-15T17:53:42.808Z,1.43
2018-06-15T17:56:11.349Z,1.67
2018-06-15T17:58:40.034Z,1.97
2018-06-15T18:01:08.460Z,2.00
2018-06-15T18:03:37.269Z,1.77
2018-06-15T18:06:05.879Z,1.70
2018-06-15T18:08:34.490Z,1.50
2018-06-15T18:11:02.830Z,1.90
2018-06-15T18:13:31.427Z,1.47
2018-06-15T18:15:59.919Z,2.30
2018-06-15T18:18:28.660Z,1.90
2018-06-15T18:20:57.175Z,1.90
2018-06-15T18:23:25.760Z,1.90
2018-06-15T18:25:54.253Z,2.03
2018-06-15T18:28:22.664Z,1.93
2018-06-15T18:30:51.113Z,2.40
2018-06-15T18:33:19.585Z,2.00
2018-06-15T18:35:48.573Z,2.07
2018-06-15T18:38:17.065Z,2.10
2018-06-15T18:40:45.632Z,1.90
2018-06-15T18:43:14.217Z,1.97
2018-06-15T18:45:42.616Z,1.90
2018-06-15T18:48:11.496Z,1.80
2018-06-15T18:50:40.290Z,2.77
2018-06-15T18:53:09.983Z,4.23
2018-06-15T18:55:38.506Z,2.10
2018-06-15T18:58:07.048Z,2.30
2018-06-15T19:00:35.529Z,2.30
2018-06-15T19:03:04.212Z,1.93
2018-06-15T19:05:32.801Z,2.13
2018-06-15T19:08:01.189Z,5.10
2018-06-15T19:10:29.650Z,2.87
2018-06-15T19:12:58.032Z,3.50
2018-06-15T19:15:26.336Z,3.30
2018-06-15T19:17:54.583Z,2.00
2018-06-15T19:20:22.857Z,2.53
2018-06-15T19:22:51.373Z,2.20
2018-06-15T19:25:19.704Z,2.10
2018-06-15T19:27:47.862Z,2.40
2018-06-15T19:30:16.371Z,2.77
2018-06-15T19:32:44.954Z,2.60
2018-06-15T19:35:13.643Z,2.10
2018-06-15T19:37:42.224Z,4.83
2018-06-15T19:40:10.809Z,2.80
2018-06-15T19:42:39.391Z,2.50
2018-06-15T19:45:07.913Z,3.70
2018-06-15T19:47:36.658Z,1.90
2018-06-15T19:50:05.134Z,2.17
2018-06-15T19:52:33.766Z,3.40
2018-06-15T19:55:02.419Z,2.33
2018-06-15T19:57:30.989Z,2.27
2018-06-15T19:59:59.530Z,2.07
2018-06-15T20:02:28.160Z,2.23
2018-06-15T20:04:56.838Z,1.90
2018-06-15T20:07:25.322Z,2.03
2018-06-15T20:09:53.905Z,2.80
2018-06-15T20:12:22.491Z,2.33
2018-06-15T20:14:51.003Z,2.27
2018-06-15T20:17:20.163Z,2.67
2018-06-15T20:19:48.656Z,2.80
2018-06-15T20:22:17.230Z,2.87
2018-06-15T20:24:45.916Z,2.10
2018-06-15T20:27:14.599Z,3.90
2018-06-15T20:29:43.284Z,2.27
2018-06-15T20:32:11.455Z,2.40
2018-06-15T20:34:40.044Z,2.07
2018-06-15T20:37:08.466Z,2.33
2018-06-15T20:39:37.005Z,1.80
2018-06-15T20:42:05.589Z,1.90
2018-06-15T20:44:34.170Z,1.70
2018-06-15T20:47:02.514Z,1.87
2018-06-15T20:49:31.025Z,1.53
2018-06-15T20:51:59.606Z,1.95
2018-06-15T20:54:28.195Z,1.97
2018-06-15T20:56:56.772Z,2.00
2018-06-15T20:59:25.461Z,3.00
2018-06-15T21:01:53.906Z,4.87
2018-06-15T21:04:22.354Z,1.67
2018-06-15T21:06:50.798Z,1.37
2018-06-15T21:09:19.388Z,1.17
2018-06-15T21:11:47.864Z,1.00
2018-06-15T21:14:16.446Z,1.17
2018-06-15T21:16:47.644Z,4.60
2018-06-15T21:19:16.682Z,2.40
2018-06-15T21:21:45.386Z,2.63
2018-06-15T21:24:14.175Z,1.40
2018-06-15T21:26:42.926Z,2.83
2018-06-15T21:29:11.759Z,1.90
2018-06-15T21:31:40.643Z,1.80
2018-06-15T21:34:09.127Z,1.30
2018-06-15T21:36:37.872Z,1.13
2018-06-15T21:39:07.175Z,1.43
2018-06-15T21:41:35.865Z,2.77
2018-06-15T21:44:04.541Z,1.33
2018-06-15T21:46:33.367Z,1.10
2018-06-15T21:49:02.231Z,1.60
2018-06-15T21:51:30.942Z,4.53
2018-06-15T21:53:59.713Z,1.70
2018-06-15T21:56:28.395Z,1.50
2018-06-15T21:58:57.000Z,1.33
2018-06-15T22:01:27.231Z,1.20
2018-06-15T22:03:56.222Z,1.27
2018-06-15T22:06:25.082Z,1.10
2018-06-15T22:08:54.080Z,1.10
2018-06-15T22:11:22.787Z,1.20
2018-06-15T22:13:51.553Z,1.43
2018-06-15T22:16:20.540Z,1.10
2018-06-15T22:18:49.544Z,1.23
2018-06-15T22:21:18.226Z,0.90
2018-06-15T22:23:47.015Z,1.50
2018-06-15T22:26:16.000Z,1.80
2018-06-15T22:28:44.799Z,0.97
2018-06-15T22:31:13.603Z,1.00
2018-06-15T22:33:42.174Z,1.03
2018-06-15T22:36:10.744Z,1.20
2018-06-15T22:38:39.443Z,1.30
2018-06-15T22:41:08.035Z,1.33
2018-06-15T22:43:36.400Z,1.23
2018-06-15T22:46:05.323Z,1.27
2018-06-15T22:48:34.008Z,1.40
2018-06-15T22:51:02.857Z,1.00
2018-06-15T22:53:31.586Z,0.87
2018-06-15T22:56:00.478Z,0.97
2018-06-15T22:58:29.184Z,0.80
2018-06-15T23:00:57.827Z,1.13
2018-06-15T23:03:26.448Z,1.10
2018-06-15T23:05:55.071Z,0.90
2018-06-15T23:08:23.957Z,0.87
2018-06-15T23:10:53.100Z,0.80
2018-06-15T23:13:22.000Z,1.20
2018-06-15T23:15:51.024Z,0.97
2018-06-15T23:18:19.871Z,1.00
2018-06-15T23:20:49.131Z,1.00
2018-06-15T23:23:18.160Z,0.93
2018-06-15T23:25:46.956Z,0.93
2018-06-15T23:28:15.997Z,0.87
2018-06-15T23:30:45.292Z,0.97
2018-06-15T23:33:14.032Z,0.60
2018-06-15T23:35:42.680Z,0.87
2018-06-15T23:38:11.114Z,1.00
2018-06-15T23:40:39.753Z,1.10
2018-06-15T23:43:08.599Z,0.93
2018-06-15T23:45:37.220Z,1.20
2018-06-15T23:48:05.897Z,1.20
2018-06-15T23:50:34.510Z,1.17
2018-06-15T23:53:03.112Z,0.83
2018-06-15T23:55:31.645Z,1.10
2018-06-15T23:58:00.229Z,0.90
